sensor_id;sensor_type;location;lat;lon;timestamp;P1;durP1;ratioP1;P2;durP2;ratioP2
68923;SDS011;55961;52.156;20.942;2022-12-24T00:00:28;58.40;;;21.97;;
68923;SDS011;55961;52.156;20.942;2022-12-24T00:03:14;56.85;;;21.15;;
68923;SDS011;55961;52.156;20.942;2022-12-24T00:05:40;57.05;;;19.50;;
68923;SDS011;55961;52.156;20.942;2022-12-24T00:08:05;56.77;;;19.93;;
68923;SDS011;55961;52.156;20.942;2022-12-24T00:10:31;55.83;;;20.52;;
68923;SDS011;55961;52.156;20.942;2022-12-24T00:12:57;52.72;;;21.23;;
68923;SDS011;55961;52.156;20.942;2022-12-24T00:15:23;53.70;;;19.25;;
68923;SDS011;55961;52.156;20.942;2022-12-24T00:17:49;53.03;;;19.43;;
68923;SDS011;55961;52.156;20.942;2022-12-24T00:20:15;56.65;;;20.98;;
68923;SDS011;55961;52.156;20.942;2022-12-24T00:22:41;57.90;;;23.02;;
68923;SDS011;55961;52.156;20.942;2022-12-24T00:25:07;66.93;;;24.33;;
68923;SDS011;55961;52.156;20.942;2022-12-24T00:27:33;56.47;;;21.73;;
68923;SDS011;55961;52.156;20.942;2022-12-24T00:29:59;62.70;;;24.70;;
68923;SDS011;55961;52.156;20.942;2022-12-24T00:32:25;69.45;;;27.77;;
68923;SDS011;55961;52.156;20.942;2022-12-24T00:34:51;62.90;;;24.10;;
68923;SDS011;55961;52.156;20.942;2022-12-24T00:37:17;69.18;;;24.65;;
68923;SDS011;55961;52.156;20.942;2022-12-24T00:39:43;63.33;;;25.40;;
68923;SDS011;55961;52.156;20.942;2022-12-24T00:42:09;74.60;;;23.77;;
68923;SDS011;55961;52.156;20.942;2022-12-24T00:44:35;74.85;;;25.35;;
68923;SDS011;55961;52.156;20.942;2022-12-24T00:47:00;68.07;;;26.05;;
68923;SDS011;55961;52.156;20.942;2022-12-24T00:49:26;65.82;;;24.65;;
68923;SDS011;55961;52.156;20.942;2022-12-24T00:51:52;67.70;;;26.37;;
68923;SDS011;55961;52.156;20.942;2022-12-24T00:54:18;61.22;;;22.05;;
68923;SDS011;55961;52.156;20.942;2022-12-24T00:56:44;57.13;;;22.07;;
68923;SDS011;55961;52.156;20.942;2022-12-24T00:59:10;63.17;;;21.83;;
68923;SDS011;55961;52.156;20.942;2022-12-24T01:01:36;60.65;;;21.45;;
68923;SDS011;55961;52.156;20.942;2022-12-24T01:04:02;75.70;;;23.17;;
68923;SDS011;55961;52.156;20.942;2022-12-24T01:06:46;62.65;;;21.45;;
68923;SDS011;55961;52.156;20.942;2022-12-24T01:09:12;64.40;;;22.98;;
68923;SDS011;55961;52.156;20.942;2022-12-24T01:11:38;66.45;;;24.02;;
68923;SDS011;55961;52.156;20.942;2022-12-24T01:14:04;74.17;;;24.17;;
68923;SDS011;55961;52.156;20.942;2022-12-24T01:16:30;91.22;;;26.75;;
68923;SDS011;55961;52.156;20.942;2022-12-24T01:18:56;93.28;;;27.15;;
68923;SDS011;55961;52.156;20.942;2022-12-24T01:21:22;79.63;;;25.03;;
68923;SDS011;55961;52.156;20.942;2022-12-24T01:23:48;73.53;;;25.52;;
68923;SDS011;55961;52.156;20.942;2022-12-24T01:26:14;71.97;;;24.48;;
68923;SDS011;55961;52.156;20.942;2022-12-24T01:28:40;78.33;;;23.77;;
68923;SDS011;55961;52.156;20.942;2022-12-24T01:31:10;67.32;;;22.95;;
68923;SDS011;55961;52.156;20.942;2022-12-24T01:33:40;67.43;;;22.45;;
68923;SDS011;55961;52.156;20.942;2022-12-24T01:36:07;71.70;;;23.92;;
68923;SDS011;55961;52.156;20.942;2022-12-24T01:38:33;69.80;;;24.40;;
68923;SDS011;55961;52.156;20.942;2022-12-24T01:40:59;70.83;;;24.30;;
68923;SDS011;55961;52.156;20.942;2022-12-24T01:43:44;76.70;;;26.10;;
68923;SDS011;55961;52.156;20.942;2022-12-24T01:46:19;75.73;;;25.00;;
68923;SDS011;55961;52.156;20.942;2022-12-24T01:54:27;75.07;;;23.55;;
68923;SDS011;55961;52.156;20.942;2022-12-24T01:57:06;57.35;;;20.38;;
68923;SDS011;55961;52.156;20.942;2022-12-24T01:59:39;64.63;;;21.90;;
68923;SDS011;55961;52.156;20.942;2022-12-24T02:02:07;66.78;;;20.70;;
68923;SDS011;55961;52.156;20.942;2022-12-24T02:07:20;56.67;;;18.40;;
68923;SDS011;55961;52.156;20.942;2022-12-24T02:09:46;57.78;;;20.25;;
68923;SDS011;55961;52.156;20.942;2022-12-24T02:12:15;62.40;;;20.33;;
68923;SDS011;55961;52.156;20.942;2022-12-24T02:14:41;60.42;;;18.42;;
68923;SDS011;55961;52.156;20.942;2022-12-24T02:27:13;73.13;;;21.10;;
68923;SDS011;55961;52.156;20.942;2022-12-24T02:33:09;69.20;;;19.33;;
68923;SDS011;55961;52.156;20.942;2022-12-24T02:41:06;53.33;;;17.30;;
68923;SDS011;55961;52.156;20.942;2022-12-24T02:43:38;55.58;;;18.55;;
68923;SDS011;55961;52.156;20.942;2022-12-24T02:46:11;64.72;;;19.33;;
68923;SDS011;55961;52.156;20.942;2022-12-24T02:48:46;57.00;;;17.70;;
68923;SDS011;55961;52.156;20.942;2022-12-24T02:51:13;57.63;;;18.50;;
68923;SDS011;55961;52.156;20.942;2022-12-24T02:53:40;54.97;;;18.57;;
68923;SDS011;55961;52.156;20.942;2022-12-24T03:01:30;64.88;;;19.35;;
68923;SDS011;55961;52.156;20.942;2022-12-24T03:06:43;74.83;;;22.23;;
68923;SDS011;55961;52.156;20.942;2022-12-24T03:09:20;66.93;;;21.88;;
68923;SDS011;55961;52.156;20.942;2022-12-24T03:12:03;59.67;;;20.95;;
68923;SDS011;55961;52.156;20.942;2022-12-24T03:14:34;71.57;;;20.98;;
68923;SDS011;55961;52.156;20.942;2022-12-24T03:17:03;63.70;;;21.02;;
68923;SDS011;55961;52.156;20.942;2022-12-24T03:19:29;55.57;;;20.70;;
68923;SDS011;55961;52.156;20.942;2022-12-24T03:21:57;63.75;;;20.40;;
68923;SDS011;55961;52.156;20.942;2022-12-24T03:24:26;61.50;;;19.13;;
68923;SDS011;55961;52.156;20.942;2022-12-24T03:26:52;53.33;;;18.55;;
68923;SDS011;55961;52.156;20.942;2022-12-24T03:29:18;62.30;;;18.80;;
68923;SDS011;55961;52.156;20.942;2022-12-24T03:31:46;57.13;;;20.10;;
68923;SDS011;55961;52.156;20.942;2022-12-24T03:34:13;52.25;;;20.15;;
68923;SDS011;55961;52.156;20.942;2022-12-24T03:36:40;52.53;;;19.83;;
68923;SDS011;55961;52.156;20.942;2022-12-24T03:39:07;56.15;;;19.45;;
68923;SDS011;55961;52.156;20.942;2022-12-24T03:41:34;54.33;;;17.80;;
68923;SDS011;55961;52.156;20.942;2022-12-24T03:44:00;56.83;;;20.35;;
68923;SDS011;55961;52.156;20.942;2022-12-24T03:46:26;56.30;;;19.13;;
68923;SDS011;55961;52.156;20.942;2022-12-24T03:48:52;57.13;;;19.63;;
68923;SDS011;55961;52.156;20.942;2022-12-24T03:51:22;57.33;;;18.77;;
68923;SDS011;55961;52.156;20.942;2022-12-24T03:53:52;50.57;;;17.97;;
68923;SDS011;55961;52.156;20.942;2022-12-24T03:56:19;56.38;;;19.40;;
68923;SDS011;55961;52.156;20.942;2022-12-24T03:58:45;53.17;;;19.02;;
68923;SDS011;55961;52.156;20.942;2022-12-24T04:01:11;57.80;;;17.92;;
68923;SDS011;55961;52.156;20.942;2022-12-24T04:03:37;57.80;;;19.00;;
68923;SDS011;55961;52.156;20.942;2022-12-24T04:06:07;57.25;;;17.83;;
68923;SDS011;55961;52.156;20.942;2022-12-24T04:08:35;52.35;;;17.17;;
68923;SDS011;55961;52.156;20.942;2022-12-24T04:11:05;50.75;;;16.88;;
68923;SDS011;55961;52.156;20.942;2022-12-24T04:13:32;54.60;;;17.23;;
68923;SDS011;55961;52.156;20.942;2022-12-24T04:16:03;45.87;;;16.30;;
68923;SDS011;55961;52.156;20.942;2022-12-24T04:18:31;51.80;;;16.35;;
68923;SDS011;55961;52.156;20.942;2022-12-24T04:20:58;44.88;;;15.57;;
68923;SDS011;55961;52.156;20.942;2022-12-24T04:23:24;43.72;;;14.82;;
68923;SDS011;55961;52.156;20.942;2022-12-24T04:25:50;43.58;;;15.32;;
68923;SDS011;55961;52.156;20.942;2022-12-24T04:28:16;49.40;;;15.80;;
68923;SDS011;55961;52.156;20.942;2022-12-24T04:30:43;50.92;;;15.00;;
68923;SDS011;55961;52.156;20.942;2022-12-24T04:33:09;41.60;;;14.13;;
68923;SDS011;55961;52.156;20.942;2022-12-24T04:35:38;43.30;;;14.50;;
68923;SDS011;55961;52.156;20.942;2022-12-24T04:38:08;49.72;;;14.85;;
68923;SDS011;55961;52.156;20.942;2022-12-24T04:40:34;41.55;;;13.90;;
68923;SDS011;55961;52.156;20.942;2022-12-24T04:43:01;41.70;;;14.57;;
68923;SDS011;55961;52.156;20.942;2022-12-24T04:45:27;41.00;;;13.83;;
68923;SDS011;55961;52.156;20.942;2022-12-24T04:47:53;36.83;;;13.23;;
68923;SDS011;55961;52.156;20.942;2022-12-24T04:50:19;39.35;;;14.25;;
68923;SDS011;55961;52.156;20.942;2022-12-24T04:52:44;38.97;;;14.23;;
68923;SDS011;55961;52.156;20.942;2022-12-24T04:55:10;36.30;;;13.60;;
68923;SDS011;55961;52.156;20.942;2022-12-24T04:57:36;48.88;;;13.43;;
68923;SDS011;55961;52.156;20.942;2022-12-24T05:00:03;44.63;;;15.47;;
68923;SDS011;55961;52.156;20.942;2022-12-24T05:02:30;39.42;;;14.90;;
68923;SDS011;55961;52.156;20.942;2022-12-24T05:04:56;34.60;;;14.35;;
68923;SDS011;55961;52.156;20.942;2022-12-24T05:07:22;35.00;;;14.13;;
68923;SDS011;55961;52.156;20.942;2022-12-24T05:09:48;36.20;;;12.90;;
68923;SDS011;55961;52.156;20.942;2022-12-24T05:12:14;36.20;;;14.88;;
68923;SDS011;55961;52.156;20.942;2022-12-24T05:14:40;41.47;;;15.90;;
68923;SDS011;55961;52.156;20.942;2022-12-24T05:17:05;38.10;;;14.37;;
68923;SDS011;55961;52.156;20.942;2022-12-24T05:19:31;38.63;;;15.23;;
68923;SDS011;55961;52.156;20.942;2022-12-24T05:21:57;36.28;;;14.15;;
68923;SDS011;55961;52.156;20.942;2022-12-24T05:24:42;39.27;;;14.13;;
68923;SDS011;55961;52.156;20.942;2022-12-24T05:27:26;34.88;;;14.15;;
68923;SDS011;55961;52.156;20.942;2022-12-24T05:29:53;38.65;;;14.32;;
68923;SDS011;55961;52.156;20.942;2022-12-24T05:32:19;38.75;;;15.00;;
68923;SDS011;55961;52.156;20.942;2022-12-24T05:34:45;35.15;;;13.48;;
68923;SDS011;55961;52.156;20.942;2022-12-24T05:37:10;34.20;;;12.20;;
68923;SDS011;55961;52.156;20.942;2022-12-24T05:39:36;38.50;;;14.18;;
68923;SDS011;55961;52.156;20.942;2022-12-24T05:42:02;30.92;;;13.70;;
68923;SDS011;55961;52.156;20.942;2022-12-24T05:44:28;34.80;;;13.47;;
68923;SDS011;55961;52.156;20.942;2022-12-24T05:46:54;34.60;;;12.93;;
68923;SDS011;55961;52.156;20.942;2022-12-24T05:49:20;31.77;;;14.25;;
68923;SDS011;55961;52.156;20.942;2022-12-24T05:51:46;30.73;;;12.40;;
68923;SDS011;55961;52.156;20.942;2022-12-24T05:54:12;33.00;;;12.82;;
68923;SDS011;55961;52.156;20.942;2022-12-24T05:56:38;32.67;;;12.50;;
68923;SDS011;55961;52.156;20.942;2022-12-24T05:59:04;33.20;;;12.27;;
68923;SDS011;55961;52.156;20.942;2022-12-24T06:01:29;28.52;;;11.27;;
68923;SDS011;55961;52.156;20.942;2022-12-24T06:03:56;30.17;;;12.68;;
68923;SDS011;55961;52.156;20.942;2022-12-24T06:06:22;27.63;;;11.00;;
68923;SDS011;55961;52.156;20.942;2022-12-24T06:08:50;30.73;;;12.25;;
68923;SDS011;55961;52.156;20.942;2022-12-24T06:11:18;30.55;;;11.23;;
68923;SDS011;55961;52.156;20.942;2022-12-24T06:13:46;31.40;;;11.50;;
68923;SDS011;55961;52.156;20.942;2022-12-24T06:16:13;27.33;;;10.83;;
68923;SDS011;55961;52.156;20.942;2022-12-24T06:18:41;28.42;;;10.80;;
68923;SDS011;55961;52.156;20.942;2022-12-24T06:21:07;33.05;;;10.93;;
68923;SDS011;55961;52.156;20.942;2022-12-24T06:23:35;28.88;;;10.80;;
68923;SDS011;55961;52.156;20.942;2022-12-24T06:26:03;28.83;;;10.73;;
68923;SDS011;55961;52.156;20.942;2022-12-24T06:28:31;24.98;;;10.60;;
68923;SDS011;55961;52.156;20.942;2022-12-24T06:31:01;29.48;;;11.15;;
68923;SDS011;55961;52.156;20.942;2022-12-24T06:33:29;32.00;;;11.30;;
68923;SDS011;55961;52.156;20.942;2022-12-24T06:35:56;29.63;;;10.77;;
68923;SDS011;55961;52.156;20.942;2022-12-24T06:38:22;28.03;;;10.13;;
68923;SDS011;55961;52.156;20.942;2022-12-24T06:40:47;26.50;;;10.40;;
68923;SDS011;55961;52.156;20.942;2022-12-24T06:43:14;27.92;;;10.57;;
68923;SDS011;55961;52.156;20.942;2022-12-24T06:45:43;29.73;;;11.07;;
68923;SDS011;55961;52.156;20.942;2022-12-24T06:48:10;28.30;;;10.57;;
68923;SDS011;55961;52.156;20.942;2022-12-24T06:50:36;30.75;;;11.70;;
68923;SDS011;55961;52.156;20.942;2022-12-24T06:53:02;28.55;;;11.93;;
68923;SDS011;55961;52.156;20.942;2022-12-24T06:55:28;28.13;;;11.03;;
68923;SDS011;55961;52.156;20.942;2022-12-24T06:57:54;27.80;;;10.32;;
68923;SDS011;55961;52.156;20.942;2022-12-24T07:00:19;25.83;;;10.70;;
68923;SDS011;55961;52.156;20.942;2022-12-24T07:02:49;25.77;;;10.27;;
68923;SDS011;55961;52.156;20.942;2022-12-24T07:05:15;31.20;;;10.48;;
68923;SDS011;55961;52.156;20.942;2022-12-24T07:07:50;24.35;;;10.13;;
68923;SDS011;55961;52.156;20.942;2022-12-24T07:10:36;25.58;;;10.43;;
68923;SDS011;55961;52.156;20.942;2022-12-24T07:13:05;27.77;;;10.35;;
68923;SDS011;55961;52.156;20.942;2022-12-24T07:15:30;26.63;;;10.03;;
68923;SDS011;55961;52.156;20.942;2022-12-24T07:17:56;23.05;;;8.88;;
68923;SDS011;55961;52.156;20.942;2022-12-24T07:20:22;29.00;;;10.77;;
68923;SDS011;55961;52.156;20.942;2022-12-24T07:22:48;21.97;;;9.23;;
68923;SDS011;55961;52.156;20.942;2022-12-24T07:25:14;24.25;;;9.80;;
68923;SDS011;55961;52.156;20.942;2022-12-24T07:27:40;22.25;;;9.20;;
68923;SDS011;55961;52.156;20.942;2022-12-24T07:30:06;25.60;;;9.80;;
68923;SDS011;55961;52.156;20.942;2022-12-24T07:32:33;21.98;;;9.95;;
68923;SDS011;55961;52.156;20.942;2022-12-24T07:34:58;29.33;;;10.57;;
68923;SDS011;55961;52.156;20.942;2022-12-24T07:37:24;25.10;;;9.90;;
68923;SDS011;55961;52.156;20.942;2022-12-24T07:39:50;26.65;;;10.80;;
68923;SDS011;55961;52.156;20.942;2022-12-24T07:42:16;23.88;;;9.63;;
68923;SDS011;55961;52.156;20.942;2022-12-24T07:44:42;26.97;;;11.43;;
68923;SDS011;55961;52.156;20.942;2022-12-24T07:47:08;25.70;;;9.93;;
68923;SDS011;55961;52.156;20.942;2022-12-24T07:49:34;24.02;;;9.38;;
68923;SDS011;55961;52.156;20.942;2022-12-24T07:52:01;27.52;;;9.73;;
68923;SDS011;55961;52.156;20.942;2022-12-24T07:54:27;26.10;;;9.77;;
68923;SDS011;55961;52.156;20.942;2022-12-24T07:56:53;23.83;;;8.00;;
68923;SDS011;55961;52.156;20.942;2022-12-24T07:59:19;27.92;;;10.00;;
68923;SDS011;55961;52.156;20.942;2022-12-24T08:01:46;25.55;;;9.52;;
68923;SDS011;55961;52.156;20.942;2022-12-24T08:04:11;27.27;;;9.83;;
68923;SDS011;55961;52.156;20.942;2022-12-24T08:06:38;23.88;;;9.50;;
68923;SDS011;55961;52.156;20.942;2022-12-24T08:09:04;27.02;;;10.15;;
68923;SDS011;55961;52.156;20.942;2022-12-24T08:11:30;28.63;;;9.35;;
68923;SDS011;55961;52.156;20.942;2022-12-24T08:13:56;24.27;;;9.40;;
68923;SDS011;55961;52.156;20.942;2022-12-24T08:16:22;24.00;;;8.73;;
68923;SDS011;55961;52.156;20.942;2022-12-24T08:18:48;24.75;;;9.95;;
68923;SDS011;55961;52.156;20.942;2022-12-24T08:21:14;23.98;;;9.32;;
68923;SDS011;55961;52.156;20.942;2022-12-24T08:23:40;26.77;;;9.43;;
68923;SDS011;55961;52.156;20.942;2022-12-24T08:26:06;25.10;;;8.73;;
68923;SDS011;55961;52.156;20.942;2022-12-24T08:28:33;24.77;;;9.85;;
68923;SDS011;55961;52.156;20.942;2022-12-24T08:30:59;25.85;;;9.68;;
68923;SDS011;55961;52.156;20.942;2022-12-24T08:33:24;28.77;;;9.97;;
68923;SDS011;55961;52.156;20.942;2022-12-24T08:35:53;29.25;;;9.88;;
68923;SDS011;55961;52.156;20.942;2022-12-24T08:38:19;26.05;;;9.07;;
68923;SDS011;55961;52.156;20.942;2022-12-24T08:40:46;25.58;;;10.10;;
68923;SDS011;55961;52.156;20.942;2022-12-24T08:43:17;23.63;;;9.17;;
68923;SDS011;55961;52.156;20.942;2022-12-24T08:45:44;25.73;;;10.02;;
68923;SDS011;55961;52.156;20.942;2022-12-24T08:48:12;24.73;;;8.85;;
68923;SDS011;55961;52.156;20.942;2022-12-24T08:50:38;26.77;;;9.93;;
68923;SDS011;55961;52.156;20.942;2022-12-24T08:53:05;22.75;;;9.05;;
68923;SDS011;55961;52.156;20.942;2022-12-24T08:55:31;23.73;;;8.73;;
68923;SDS011;55961;52.156;20.942;2022-12-24T08:57:57;19.48;;;7.93;;
68923;SDS011;55961;52.156;20.942;2022-12-24T09:00:23;24.98;;;8.98;;
68923;SDS011;55961;52.156;20.942;2022-12-24T09:02:49;23.23;;;8.30;;
68923;SDS011;55961;52.156;20.942;2022-12-24T09:05:15;21.65;;;8.63;;
68923;SDS011;55961;52.156;20.942;2022-12-24T09:07:42;23.65;;;8.85;;
68923;SDS011;55961;52.156;20.942;2022-12-24T09:10:09;22.58;;;8.75;;
68923;SDS011;55961;52.156;20.942;2022-12-24T09:12:35;21.50;;;8.30;;
68923;SDS011;55961;52.156;20.942;2022-12-24T09:15:02;19.10;;;8.17;;
68923;SDS011;55961;52.156;20.942;2022-12-24T09:17:28;23.77;;;9.48;;
68923;SDS011;55961;52.156;20.942;2022-12-24T09:19:54;24.45;;;8.93;;
68923;SDS011;55961;52.156;20.942;2022-12-24T09:22:20;18.97;;;8.40;;
68923;SDS011;55961;52.156;20.942;2022-12-24T09:24:46;22.50;;;8.20;;
68923;SDS011;55961;52.156;20.942;2022-12-24T09:27:12;22.65;;;9.60;;
68923;SDS011;55961;52.156;20.942;2022-12-24T09:29:38;21.45;;;8.40;;
68923;SDS011;55961;52.156;20.942;2022-12-24T09:32:05;22.47;;;8.73;;
68923;SDS011;55961;52.156;20.942;2022-12-24T09:34:32;21.48;;;9.20;;
68923;SDS011;55961;52.156;20.942;2022-12-24T09:36:57;18.52;;;8.40;;
68923;SDS011;55961;52.156;20.942;2022-12-24T09:39:25;18.93;;;7.80;;
68923;SDS011;55961;52.156;20.942;2022-12-24T09:42:05;16.75;;;7.57;;
68923;SDS011;55961;52.156;20.942;2022-12-24T09:45:15;19.73;;;7.78;;
68923;SDS011;55961;52.156;20.942;2022-12-24T09:47:54;21.92;;;8.13;;
68923;SDS011;55961;52.156;20.942;2022-12-24T09:50:39;18.17;;;7.73;;
68923;SDS011;55961;52.156;20.942;2022-12-24T09:53:17;19.77;;;8.23;;
68923;SDS011;55961;52.156;20.942;2022-12-24T09:55:49;17.70;;;7.45;;
68923;SDS011;55961;52.156;20.942;2022-12-24T09:58:22;19.38;;;8.05;;
68923;SDS011;55961;52.156;20.942;2022-12-24T10:00:53;21.00;;;8.05;;
68923;SDS011;55961;52.156;20.942;2022-12-24T10:03:21;18.80;;;8.93;;
68923;SDS011;55961;52.156;20.942;2022-12-24T10:06:32;18.17;;;8.40;;
68923;SDS011;55961;52.156;20.942;2022-12-24T10:11:42;19.10;;;8.00;;
68923;SDS011;55961;52.156;20.942;2022-12-24T10:14:20;18.58;;;7.70;;
68923;SDS011;55961;52.156;20.942;2022-12-24T10:19:44;16.90;;;7.38;;
68923;SDS011;55961;52.156;20.942;2022-12-24T10:22:23;18.30;;;7.80;;
68923;SDS011;55961;52.156;20.942;2022-12-24T10:25:04;20.05;;;8.43;;
68923;SDS011;55961;52.156;20.942;2022-12-24T10:27:40;15.77;;;7.28;;
68923;SDS011;55961;52.156;20.942;2022-12-24T10:30:13;16.23;;;6.37;;
68923;SDS011;55961;52.156;20.942;2022-12-24T10:32:41;16.60;;;7.18;;
68923;SDS011;55961;52.156;20.942;2022-12-24T10:37:39;16.40;;;6.80;;
68923;SDS011;55961;52.156;20.942;2022-12-24T10:40:11;12.63;;;5.37;;
68923;SDS011;55961;52.156;20.942;2022-12-24T10:42:40;12.05;;;5.70;;
68923;SDS011;55961;52.156;20.942;2022-12-24T10:45:13;13.18;;;6.28;;
68923;SDS011;55961;52.156;20.942;2022-12-24T10:47:41;14.45;;;5.90;;
68923;SDS011;55961;52.156;20.942;2022-12-24T10:52:59;16.27;;;6.43;;
68923;SDS011;55961;52.156;20.942;2022-12-24T10:56:05;15.35;;;6.82;;
68923;SDS011;55961;52.156;20.942;2022-12-24T10:58:34;11.73;;;5.80;;
68923;SDS011;55961;52.156;20.942;2022-12-24T11:01:02;17.45;;;6.78;;
68923;SDS011;55961;52.156;20.942;2022-12-24T11:03:33;16.05;;;6.43;;
68923;SDS011;55961;52.156;20.942;2022-12-24T11:06:11;15.50;;;7.57;;
68923;SDS011;55961;52.156;20.942;2022-12-24T11:08:40;16.25;;;6.50;;
68923;SDS011;55961;52.156;20.942;2022-12-24T11:11:11;14.20;;;6.13;;
68923;SDS011;55961;52.156;20.942;2022-12-24T11:13:42;13.52;;;6.10;;
68923;SDS011;55961;52.156;20.942;2022-12-24T11:19:01;13.40;;;5.27;;
68923;SDS011;55961;52.156;20.942;2022-12-24T11:21:29;13.32;;;5.82;;
68923;SDS011;55961;52.156;20.942;2022-12-24T11:24:59;16.38;;;7.20;;
68923;SDS011;55961;52.156;20.942;2022-12-24T11:26:54;14.20;;;6.75;;
68923;SDS011;55961;52.156;20.942;2022-12-24T11:29:50;14.27;;;6.65;;
68923;SDS011;55961;52.156;20.942;2022-12-24T11:32:17;12.13;;;5.43;;
68923;SDS011;55961;52.156;20.942;2022-12-24T11:34:45;14.27;;;6.45;;
68923;SDS011;55961;52.156;20.942;2022-12-24T11:37:15;13.40;;;6.50;;
68923;SDS011;55961;52.156;20.942;2022-12-24T11:39:49;15.02;;;5.90;;
68923;SDS011;55961;52.156;20.942;2022-12-24T11:42:30;13.57;;;6.17;;
68923;SDS011;55961;52.156;20.942;2022-12-24T11:44:57;15.65;;;6.50;;
68923;SDS011;55961;52.156;20.942;2022-12-24T11:47:36;19.05;;;7.22;;
68923;SDS011;55961;52.156;20.942;2022-12-24T11:53:09;16.88;;;7.72;;
68923;SDS011;55961;52.156;20.942;2022-12-24T11:55:52;17.73;;;7.17;;
68923;SDS011;55961;52.156;20.942;2022-12-24T12:00:59;20.80;;;8.38;;
68923;SDS011;55961;52.156;20.942;2022-12-24T12:03:49;18.13;;;7.50;;
68923;SDS011;55961;52.156;20.942;2022-12-24T12:09:16;22.03;;;10.20;;
68923;SDS011;55961;52.156;20.942;2022-12-24T12:11:59;19.75;;;7.97;;
68923;SDS011;55961;52.156;20.942;2022-12-24T12:14:31;17.90;;;7.25;;
68923;SDS011;55961;52.156;20.942;2022-12-24T12:19:43;18.15;;;7.63;;
68923;SDS011;55961;52.156;20.942;2022-12-24T12:25:03;22.55;;;8.13;;
68923;SDS011;55961;52.156;20.942;2022-12-24T12:27:38;18.48;;;8.05;;
68923;SDS011;55961;52.156;20.942;2022-12-24T12:30:11;22.00;;;8.10;;
68923;SDS011;55961;52.156;20.942;2022-12-24T12:32:50;16.95;;;7.30;;
68923;SDS011;55961;52.156;20.942;2022-12-24T12:35:24;17.30;;;7.43;;
68923;SDS011;55961;52.156;20.942;2022-12-24T12:37:55;23.15;;;9.45;;
68923;SDS011;55961;52.156;20.942;2022-12-24T12:40:38;22.58;;;8.57;;
68923;SDS011;55961;52.156;20.942;2022-12-24T12:57:40;21.08;;;8.02;;
68923;SDS011;55961;52.156;20.942;2022-12-24T13:00:09;22.23;;;8.48;;
68923;SDS011;55961;52.156;20.942;2022-12-24T13:08:43;22.45;;;9.27;;
68923;SDS011;55961;52.156;20.942;2022-12-24T13:11:37;19.27;;;7.65;;
68923;SDS011;55961;52.156;20.942;2022-12-24T13:14:30;25.90;;;8.48;;
68923;SDS011;55961;52.156;20.942;2022-12-24T13:20:19;22.10;;;7.95;;
68923;SDS011;55961;52.156;20.942;2022-12-24T13:22:58;20.92;;;8.20;;
68923;SDS011;55961;52.156;20.942;2022-12-24T13:25:29;22.00;;;8.00;;
68923;SDS011;55961;52.156;20.942;2022-12-24T13:33:49;20.92;;;8.65;;
68923;SDS011;55961;52.156;20.942;2022-12-24T13:36:17;20.38;;;8.70;;
68923;SDS011;55961;52.156;20.942;2022-12-24T13:38:55;20.17;;;8.15;;
68923;SDS011;55961;52.156;20.942;2022-12-24T13:47:32;19.50;;;8.45;;
68923;SDS011;55961;52.156;20.942;2022-12-24T13:49:40;21.05;;;7.95;;
68923;SDS011;55961;52.156;20.942;2022-12-24T13:54:36;21.38;;;8.02;;
68923;SDS011;55961;52.156;20.942;2022-12-24T14:02:49;19.38;;;8.95;;
68923;SDS011;55961;52.156;20.942;2022-12-24T14:05:30;25.45;;;9.90;;
68923;SDS011;55961;52.156;20.942;2022-12-24T14:08:01;23.33;;;7.93;;
68923;SDS011;55961;52.156;20.942;2022-12-24T14:10:35;20.77;;;8.67;;
68923;SDS011;55961;52.156;20.942;2022-12-24T14:13:46;23.88;;;9.07;;
68923;SDS011;55961;52.156;20.942;2022-12-24T14:18:34;22.38;;;8.60;;
68923;SDS011;55961;52.156;20.942;2022-12-24T14:21:03;21.70;;;9.07;;
68923;SDS011;55961;52.156;20.942;2022-12-24T14:23:41;23.80;;;10.27;;
68923;SDS011;55961;52.156;20.942;2022-12-24T14:26:11;23.00;;;9.40;;
68923;SDS011;55961;52.156;20.942;2022-12-24T14:28:57;23.15;;;10.25;;
68923;SDS011;55961;52.156;20.942;2022-12-24T14:31:27;30.83;;;11.48;;
68923;SDS011;55961;52.156;20.942;2022-12-24T14:34:11;25.53;;;10.80;;
68923;SDS011;55961;52.156;20.942;2022-12-24T14:36:38;28.38;;;10.43;;
68923;SDS011;55961;52.156;20.942;2022-12-24T14:39:07;29.17;;;11.20;;
68923;SDS011;55961;52.156;20.942;2022-12-24T14:41:39;30.20;;;10.38;;
68923;SDS011;55961;52.156;20.942;2022-12-24T14:44:29;28.23;;;11.02;;
68923;SDS011;55961;52.156;20.942;2022-12-24T14:47:29;30.73;;;12.30;;
68923;SDS011;55961;52.156;20.942;2022-12-24T14:55:40;32.92;;;12.95;;
68923;SDS011;55961;52.156;20.942;2022-12-24T15:00:51;26.60;;;10.17;;
68923;SDS011;55961;52.156;20.942;2022-12-24T15:03:23;25.02;;;9.65;;
68923;SDS011;55961;52.156;20.942;2022-12-24T15:05:52;27.20;;;9.38;;
68923;SDS011;55961;52.156;20.942;2022-12-24T15:08:31;25.65;;;9.68;;
68923;SDS011;55961;52.156;20.942;2022-12-24T15:11:03;26.13;;;9.57;;
68923;SDS011;55961;52.156;20.942;2022-12-24T15:13:33;27.43;;;9.50;;
68923;SDS011;55961;52.156;20.942;2022-12-24T15:16:06;25.35;;;10.15;;
68923;SDS011;55961;52.156;20.942;2022-12-24T15:18:34;25.40;;;10.82;;
68923;SDS011;55961;52.156;20.942;2022-12-24T15:21:04;22.52;;;10.02;;
68923;SDS011;55961;52.156;20.942;2022-12-24T15:23:34;31.77;;;11.98;;
68923;SDS011;55961;52.156;20.942;2022-12-24T15:28:45;34.97;;;13.05;;
68923;SDS011;55961;52.156;20.942;2022-12-24T15:31:20;40.20;;;13.70;;
68923;SDS011;55961;52.156;20.942;2022-12-24T15:33:48;39.03;;;14.00;;
68923;SDS011;55961;52.156;20.942;2022-12-24T15:36:34;44.17;;;13.52;;
68923;SDS011;55961;52.156;20.942;2022-12-24T15:39:03;35.67;;;12.20;;
68923;SDS011;55961;52.156;20.942;2022-12-24T15:41:38;35.47;;;12.80;;
68923;SDS011;55961;52.156;20.942;2022-12-24T15:44:33;34.60;;;12.90;;
68923;SDS011;55961;52.156;20.942;2022-12-24T15:47:01;33.35;;;12.05;;
68923;SDS011;55961;52.156;20.942;2022-12-24T15:49:30;32.72;;;12.45;;
68923;SDS011;55961;52.156;20.942;2022-12-24T15:52:30;34.47;;;12.07;;
68923;SDS011;55961;52.156;20.942;2022-12-24T15:54:50;35.90;;;12.27;;
68923;SDS011;55961;52.156;20.942;2022-12-24T15:57:22;35.25;;;12.25;;
68923;SDS011;55961;52.156;20.942;2022-12-24T15:59:56;33.42;;;11.60;;
68923;SDS011;55961;52.156;20.942;2022-12-24T16:04:49;32.30;;;12.23;;
68923;SDS011;55961;52.156;20.942;2022-12-24T16:07:25;33.70;;;13.07;;
68923;SDS011;55961;52.156;20.942;2022-12-24T16:10:24;31.27;;;12.27;;
68923;SDS011;55961;52.156;20.942;2022-12-24T16:12:50;41.15;;;13.35;;
68923;SDS011;55961;52.156;20.942;2022-12-24T16:15:16;33.37;;;11.87;;
68923;SDS011;55961;52.156;20.942;2022-12-24T16:17:43;38.03;;;13.27;;
68923;SDS011;55961;52.156;20.942;2022-12-24T16:20:22;36.03;;;13.52;;
68923;SDS011;55961;52.156;20.942;2022-12-24T16:22:48;34.75;;;12.60;;
68923;SDS011;55961;52.156;20.942;2022-12-24T16:27:49;35.47;;;13.30;;
68923;SDS011;55961;52.156;20.942;2022-12-24T16:30:16;44.45;;;15.07;;
68923;SDS011;55961;52.156;20.942;2022-12-24T16:32:42;44.10;;;16.25;;
68923;SDS011;55961;52.156;20.942;2022-12-24T16:35:19;45.30;;;13.27;;